Weather reports worldwide

Advertisment
Oestergarnsholm, Sweden (2598): temperature & dewpoint: 06.12.2019 17:00:00 - 12.12.2019 17:00:00 (CET)Oestergarnsholm, Sweden (2598): wind speed & gusts: 06.12.2019 17:00:00 - 12.12.2019 17:00:00 (CET)Oestergarnsholm, Sweden (2598): wind direction: 06.12.2019 17:00:00 - 12.12.2019 17:00:00 (CET)
Date & Time tt [°C] td [°C] ff [km/h] ff [kn] fx [km/h] fx [kn] dd
12.12.2019 17:00:00 - - - - - - -
12.12.2019 16:00:00 3,5 -0,2 37 20 45 24 SSE
12.12.2019 15:00:00 3,2 -1,7 32 18 44 24 SSE
12.12.2019 14:00:00 3,2 -1,2 34 18 46 25 S
12.12.2019 13:00:00 3,0 -1,6 35 19 50 27 S
12.12.2019 12:00:00 3,0 -1,7 39 21 54 29 S
12.12.2019 11:00:00 2,9 -0,9 44 24 57 31 SSE
12.12.2019 10:00:00 3,2 0,4 44 24 58 31 SSE
12.12.2019 09:00:00 3,4 -0,4 45 25 57 31 S
12.12.2019 08:00:00 3,5 -0,3 49 27 60 32 S
12.12.2019 07:00:00 3,9 0,8 45 25 58 32 S
12.12.2019 06:00:00 4,1 0,4 46 25 55 30 S
12.12.2019 05:00:00 4,1 1,1 46 25 58 32 S
12.12.2019 04:00:00 4,3 1,7 44 24 57 31 S
12.12.2019 03:00:00 4,4 1,9 42 23 53 29 S
12.12.2019 02:00:00 4,0 1,4 42 23 53 29 S
12.12.2019 01:00:00 4,2 1,4 44 24 55 30 S
12.12.2019 00:00:00 3,8 2,3 43 23 54 29 SSW
11.12.2019 23:00:00 4,5 2,4 38 20 49 26 SSW
11.12.2019 22:00:00 4,2 3,0 41 22 52 28 S
11.12.2019 21:00:00 4,6 3,1 39 21 51 28 SSW
11.12.2019 20:00:00 4,5 3,5 39 21 56 31 S
11.12.2019 19:00:00 4,4 3,2 45 25 57 31 S
11.12.2019 18:00:00 4,6 3,9 44 24 54 29 S
11.12.2019 17:00:00 4,8 4,1 39 21 54 29 SSW
11.12.2019 16:00:00 4,9 4,0 42 23 56 30 SSW
11.12.2019 15:00:00 4,7 3,8 47 25 61 33 SSW
11.12.2019 14:00:00 4,8 3,6 49 27 63 34 S
11.12.2019 13:00:00 4,8 3,1 49 27 66 35 SSW
11.12.2019 12:00:00 5,2 2,7 50 27 71 38 S
11.12.2019 11:00:00 4,9 2,6 53 29 72 39 SSW
11.12.2019 10:00:00 5,3 2,0 53 28 74 40 S
11.12.2019 09:00:00 5,4 2,2 56 30 75 41 SSW
11.12.2019 08:00:00 5,3 2,0 58 31 75 41 S
11.12.2019 07:00:00 5,1 2,3 56 30 72 39 S
11.12.2019 06:00:00 4,8 1,5 55 30 70 38 S
11.12.2019 05:00:00 4,6 1,4 52 28 68 37 S
11.12.2019 04:00:00 4,4 -0,8 55 30 66 36 S
11.12.2019 03:00:00 4,0 -1,0 48 26 60 33 S
11.12.2019 02:00:00 3,6 -0,8 46 25 56 30 S
11.12.2019 01:00:00 3,2 -0,4 41 22 51 28 S
11.12.2019 00:00:00 2,8 -0,7 36 19 43 23 S
10.12.2019 23:00:00 2,3 -0,6 31 17 39 21 SSW
10.12.2019 22:00:00 1,6 -1,8 19 11 26 14 SSW
10.12.2019 21:00:00 0,7 -1,7 8 5 12 6 SSW
10.12.2019 20:00:00 0,0 -1,6 12 6 14 8 WSW
10.12.2019 19:00:00 0,0 -1,3 11 6 16 8 SW
10.12.2019 18:00:00 -0,2 -1,3 11 6 18 10 WSW
10.12.2019 17:00:00 0,8 -1,4 12 6 26 14 WNW
10.12.2019 16:00:00 1,2 -1,5 21 12 30 16 WNW
10.12.2019 15:00:00 1,1 -1,8 23 12 34 19 NW
10.12.2019 14:00:00 1,5 -1,6 25 14 38 20 NW
10.12.2019 13:00:00 1,7 -1,7 27 15 39 21 NW
10.12.2019 12:00:00 1,9 -1,4 31 17 46 25 NW
10.12.2019 11:00:00 1,7 -1,9 35 19 49 27 NNW
10.12.2019 10:00:00 1,9 -0,7 40 22 60 32 NNW
10.12.2019 09:00:00 2,3 -0,6 45 24 65 35 NNW
10.12.2019 08:00:00 2,3 1,0 42 23 61 33 N
10.12.2019 07:00:00 2,4 1,1 47 25 64 35 N
10.12.2019 06:00:00 2,5 1,2 46 25 67 36 N
10.12.2019 05:00:00 3,0 1,7 45 24 64 35 N
10.12.2019 04:00:00 3,7 2,7 29 15 49 26 NNW
10.12.2019 03:00:00 5,0 3,7 10 5 21 11 WSW
10.12.2019 02:00:00 5,4 3,6 17 9 26 14 SW
10.12.2019 01:00:00 5,4 3,7 21 11 29 15 SW
10.12.2019 00:00:00 5,4 3,9 24 13 31 17 SW
09.12.2019 23:00:00 5,8 4,1 26 14 33 18 SW
09.12.2019 22:00:00 6,0 5,0 27 15 38 21 SW
09.12.2019 21:00:00 6,0 4,8 31 17 49 26 SW
09.12.2019 20:00:00 6,1 4,9 36 19 51 27 SW
09.12.2019 19:00:00 6,1 4,7 43 23 53 29 SSW
09.12.2019 18:00:00 6,2 4,8 41 22 52 28 SSW
09.12.2019 17:00:00 6,2 4,5 37 20 49 27 SSW
09.12.2019 16:00:00 6,0 4,2 34 18 45 24 SW
09.12.2019 15:00:00 6,4 3,0 31 17 44 24 SW
09.12.2019 14:00:00 6,9 3,1 33 18 50 27 SW
09.12.2019 13:00:00 6,8 3,2 36 19 51 28 SW
09.12.2019 12:00:00 7,0 3,8 37 20 50 27 SW
09.12.2019 11:00:00 6,8 3,6 35 19 48 26 SW
09.12.2019 10:00:00 6,7 3,5 37 20 51 28 SW
09.12.2019 09:00:00 6,3 4,0 35 19 54 29 SW
09.12.2019 08:00:00 6,3 3,5 41 22 56 31 SW
09.12.2019 07:00:00 6,3 3,5 37 20 54 29 SW
09.12.2019 06:00:00 6,2 3,2 41 22 56 30 SW
09.12.2019 05:00:00 6,2 3,4 39 21 57 31 SW
09.12.2019 04:00:00 6,3 3,1 41 22 58 32 SW
09.12.2019 03:00:00 6,4 3,7 39 21 56 30 SW
09.12.2019 02:00:00 6,5 4,2 36 19 47 26 SW
09.12.2019 01:00:00 6,5 4,3 36 19 51 28 SW
09.12.2019 00:00:00 6,8 4,5 37 20 53 29 SW
08.12.2019 23:00:00 7,0 4,7 39 21 52 28 SW
08.12.2019 22:00:00 7,4 5,5 36 20 50 27 SW
08.12.2019 21:00:00 7,6 5,9 39 21 60 33 SW
08.12.2019 20:00:00 8,1 6,6 44 24 61 33 SW
08.12.2019 19:00:00 7,4 6,5 44 24 61 33 SW
08.12.2019 18:00:00 7,3 6,4 46 25 66 35 SW
08.12.2019 17:00:00 7,2 6,3 52 28 68 37 SW
08.12.2019 16:00:00 6,9 5,8 51 28 70 38 SW
08.12.2019 15:00:00 6,5 5,6 55 30 72 39 SW
08.12.2019 14:00:00 6,3 5,7 51 27 68 37 SSW
08.12.2019 13:00:00 6,3 5,7 50 27 65 35 SSW
08.12.2019 12:00:00 6,1 5,5 42 23 53 29 SSW
08.12.2019 11:00:00 6,2 5,6 43 23 56 30 SSW
08.12.2019 10:00:00 5,5 4,8 33 18 41 22 SSW
08.12.2019 09:00:00 5,0 3,5 32 18 40 22 SSW
08.12.2019 08:00:00 4,0 2,5 27 15 35 19 SW
08.12.2019 07:00:00 3,5 2,0 26 14 33 18 SW
08.12.2019 06:00:00 2,5 0,9 23 12 34 18 SW
08.12.2019 05:00:00 2,1 0,2 20 11 33 18 WSW
08.12.2019 04:00:00 2,4 0,1 25 14 34 18 WSW
08.12.2019 03:00:00 2,3 -0,1 20 11 28 15 WSW
08.12.2019 02:00:00 2,6 0,3 20 11 36 20 WSW
08.12.2019 01:00:00 3,5 1,1 29 16 44 24 W
08.12.2019 00:00:00 4,1 1,5 29 15 47 25 W
07.12.2019 23:00:00 4,5 1,5 30 16 53 28 W
07.12.2019 22:00:00 4,6 1,4 42 23 50 27 W
07.12.2019 21:00:00 4,0 2,0 32 17 59 32 WNW
07.12.2019 20:00:00 4,2 2,4 43 23 72 39 W
07.12.2019 19:00:00 5,6 1,5 43 23 63 34 W
07.12.2019 18:00:00 5,6 2,2 37 20 56 30 W
07.12.2019 17:00:00 5,7 3,4 54 29 68 37 W
07.12.2019 16:00:00 6,8 4,1 38 21 68 37 W
07.12.2019 15:00:00 7,8 6,4 32 18 47 25 W
07.12.2019 14:00:00 7,7 6,6 31 17 38 21 WSW
07.12.2019 13:00:00 7,8 6,4 27 14 35 19 SW
07.12.2019 12:00:00 7,5 6,4 26 14 37 20 SW
07.12.2019 11:00:00 7,4 6,3 29 16 41 22 SW
07.12.2019 10:00:00 7,1 6,4 29 16 42 23 SW
07.12.2019 09:00:00 7,0 6,6 29 16 38 20 SW
07.12.2019 08:00:00 6,9 6,3 32 18 41 22 SW
07.12.2019 07:00:00 6,5 6,2 33 18 45 25 SW
07.12.2019 06:00:00 6,6 6,2 35 19 44 24 SW
07.12.2019 05:00:00 6,5 5,9 34 19 44 24 SW
07.12.2019 04:00:00 6,5 5,8 35 19 46 25 SSW
07.12.2019 03:00:00 6,5 5,8 36 20 47 26 SSW
07.12.2019 02:00:00 6,4 5,8 35 19 48 26 SSW
07.12.2019 01:00:00 6,5 5,8 36 19 46 25 SSW
07.12.2019 00:00:00 6,9 5,8 36 19 51 27 SW
06.12.2019 23:00:00 7,1 6,2 39 21 53 29 SW
06.12.2019 22:00:00 7,0 6,4 40 22 50 27 SW
06.12.2019 21:00:00 7,3 6,7 39 21 49 27 SW
06.12.2019 20:00:00 7,3 6,6 30 16 36 20 SW
06.12.2019 19:00:00 7,9 6,7 23 12 37 20 SW
06.12.2019 18:00:00 8,1 6,7 22 12 42 23 SW
06.12.2019 17:00:00 8,4 6,9 31 17 43 23 WSW

tt = temperature
td = dewpoint
ff = wind speed
fx = gusts
dd = wind direction

Next stations